createdAt,value
2022-10-23T00:01:14.154Z,6.50
2022-10-23T00:03:40.967Z,5.18
2022-10-23T00:06:08.022Z,6.88
2022-10-23T00:08:34.669Z,6.60
2022-10-23T00:11:01.835Z,3.28
2022-10-23T00:13:28.490Z,4.15
2022-10-23T00:15:55.141Z,5.95
2022-10-23T00:18:21.775Z,4.55
2022-10-23T00:20:48.406Z,5.03
2022-10-23T00:23:17.354Z,11.40
2022-10-23T00:25:44.005Z,3.15
2022-10-23T00:28:10.862Z,5.97
2022-10-23T00:30:37.529Z,6.07
2022-10-23T00:33:04.206Z,7.93
2022-10-23T00:35:30.856Z,3.63
2022-10-23T00:37:57.523Z,6.40
2022-10-23T00:40:24.248Z,5.65
2022-10-23T00:42:50.897Z,6.63
2022-10-23T00:45:25.590Z,4.55
2022-10-23T00:47:52.953Z,6.38
2022-10-23T00:50:23.119Z,3.33
2022-10-23T00:52:52.949Z,8.00
2022-10-23T00:55:22.302Z,3.45
2022-10-23T00:57:50.432Z,3.90
2022-10-23T01:00:24.713Z,6.55
2022-10-23T01:02:52.599Z,7.40
2022-10-23T01:05:27.194Z,7.88
2022-10-23T01:08:04.998Z,4.10
2022-10-23T01:10:40.247Z,5.30
2022-10-23T01:13:14.967Z,3.72
2022-10-23T01:15:53.699Z,2.50
2022-10-23T01:18:35.709Z,3.33
2022-10-23T01:21:16.966Z,3.65
2022-10-23T01:24:02.039Z,5.00
2022-10-23T01:26:45.632Z,3.10
2022-10-23T01:29:21.344Z,8.55
2022-10-23T01:32:09.759Z,7.05
2022-10-23T01:35:09.093Z,2.80
2022-10-23T01:37:51.372Z,3.50
2022-10-23T01:40:27.668Z,4.45
2022-10-23T01:42:58.392Z,5.28
2022-10-23T01:45:47.726Z,9.45
2022-10-23T01:48:19.292Z,2.85
2022-10-23T01:50:47.073Z,7.03
2022-10-23T01:53:13.757Z,7.45
2022-10-23T01:58:15.193Z,1.30
2022-10-23T02:00:44.965Z,6.85
2022-10-23T02:03:13.280Z,5.55
2022-10-23T02:05:39.915Z,5.13
2022-10-23T02:08:07.093Z,6.18
2022-10-23T02:11:03.425Z,12.63
2022-10-23T02:14:29.211Z,8.93
2022-10-23T02:17:01.878Z,5.43
2022-10-23T02:19:31.738Z,8.23
2022-10-23T02:22:17.175Z,2.70
2022-10-23T02:24:58.299Z,8.48
2022-10-23T02:27:50.612Z,3.28
2022-10-23T02:30:19.783Z,4.45
2022-10-23T02:32:50.136Z,5.93
2022-10-23T02:37:51.816Z,3.17
2022-10-23T02:40:18.574Z,4.45
2022-10-23T02:43:24.540Z,4.35
2022-10-23T02:46:18.289Z,4.50
2022-10-23T02:48:51.536Z,2.95
2022-10-23T02:51:31.932Z,13.80
2022-10-23T02:57:02.326Z,2.95
2022-10-23T02:59:40.876Z,8.48
2022-10-23T03:05:04.924Z,3.08
2022-10-23T03:07:31.932Z,2.50
2022-10-23T03:09:58.544Z,7.18
2022-10-23T03:12:25.286Z,8.05
2022-10-23T03:14:51.995Z,4.47
2022-10-23T03:17:18.648Z,2.40
2022-10-23T03:19:45.254Z,2.55
2022-10-23T03:22:11.890Z,2.45
2022-10-23T03:24:38.625Z,4.50
2022-10-23T03:27:05.299Z,5.03
2022-10-23T03:29:31.906Z,10.13
2022-10-23T03:31:58.671Z,2.95
2022-10-23T03:34:25.382Z,3.05
2022-10-23T03:36:52.014Z,6.57
2022-10-23T03:39:18.694Z,3.83
2022-10-23T03:41:45.351Z,4.60
2022-10-23T03:44:12.088Z,5.80
2022-10-23T03:46:38.824Z,4.18
2022-10-23T03:49:05.738Z,9.13
2022-10-23T03:51:32.409Z,3.83
2022-10-23T03:53:59.051Z,6.18
2022-10-23T03:56:25.720Z,6.07
2022-10-23T03:58:52.572Z,6.78
2022-10-23T04:01:19.365Z,5.78
2022-10-23T04:03:46.190Z,8.10
2022-10-23T04:06:12.923Z,5.38
2022-10-23T04:08:39.777Z,6.70
2022-10-23T04:11:06.422Z,5.70
2022-10-23T04:13:33.065Z,8.18
2022-10-23T04:15:59.719Z,9.23
2022-10-23T04:18:26.430Z,4.57
2022-10-23T04:20:53.173Z,6.22
2022-10-23T04:23:20.239Z,4.80
2022-10-23T04:28:14.523Z,6.45
2022-10-23T04:30:41.679Z,8.57
2022-10-23T04:33:08.399Z,5.65
2022-10-23T04:35:35.046Z,7.75
2022-10-23T04:38:01.682Z,5.60
2022-10-23T04:40:28.441Z,6.10
2022-10-23T04:42:55.058Z,2.78
2022-10-23T04:45:21.705Z,7.75
2022-10-23T04:47:48.335Z,4.22
2022-10-23T04:50:15.702Z,7.07
2022-10-23T04:52:42.640Z,7.10
2022-10-23T04:55:09.812Z,4.65
2022-10-23T04:57:36.496Z,8.93
2022-10-23T05:00:05.449Z,5.32
2022-10-23T05:02:32.297Z,7.70
2022-10-23T05:04:58.946Z,2.80
2022-10-23T05:07:25.618Z,5.85
2022-10-23T05:09:52.281Z,7.35
2022-10-23T05:12:19.990Z,7.43
2022-10-23T05:14:46.628Z,2.45
2022-10-23T05:17:18.382Z,1.73
2022-10-23T05:19:52.447Z,1.38
2022-10-23T05:22:20.824Z,9.93
2022-10-23T05:24:50.451Z,4.38
2022-10-23T05:27:17.516Z,4.80
2022-10-23T05:29:44.155Z,4.60
2022-10-23T05:32:14.486Z,6.35
2022-10-23T05:34:42.018Z,5.45
2022-10-23T05:37:12.328Z,3.60
2022-10-23T05:42:05.716Z,5.30
2022-10-23T05:44:32.355Z,2.55
2022-10-23T05:46:59.014Z,2.85
2022-10-23T05:49:26.677Z,8.23
2022-10-23T05:51:53.349Z,3.30
2022-10-23T05:54:20.058Z,3.50
2022-10-23T05:56:46.717Z,4.50
2022-10-23T05:59:13.337Z,3.45
2022-10-23T06:01:40.137Z,1.90
2022-10-23T06:04:06.925Z,8.25
2022-10-23T06:06:33.573Z,6.28
2022-10-23T06:09:00.247Z,6.25
2022-10-23T06:11:26.894Z,2.85
2022-10-23T06:13:53.602Z,3.33
2022-10-23T06:16:22.798Z,10.57
2022-10-23T06:18:49.518Z,6.38
2022-10-23T06:21:17.144Z,7.75
2022-10-23T06:23:45.033Z,4.43
2022-10-23T06:26:14.327Z,4.20
2022-10-23T06:28:41.272Z,9.32
2022-10-23T06:31:09.468Z,5.22
2022-10-23T06:33:36.746Z,4.80
2022-10-23T06:36:04.076Z,3.60
2022-10-23T06:38:36.631Z,5.75
2022-10-23T06:41:05.078Z,5.30
2022-10-23T06:43:32.843Z,2.90
2022-10-23T06:46:03.938Z,5.45
2022-10-23T06:48:31.338Z,3.63
2022-10-23T06:50:58.455Z,8.60
2022-10-23T06:53:25.625Z,3.50
2022-10-23T06:55:55.406Z,5.82
2022-10-23T06:58:22.452Z,5.72
2022-10-23T07:00:49.212Z,3.80
2022-10-23T07:03:16.082Z,7.60
2022-10-23T07:05:45.001Z,7.72
2022-10-23T07:08:11.885Z,4.22
2022-10-23T07:10:38.682Z,4.40
2022-10-23T07:13:05.487Z,2.60
2022-10-23T07:15:32.629Z,5.25
2022-10-23T07:17:59.323Z,3.53
2022-10-23T07:20:26.411Z,6.25
2022-10-23T07:22:55.154Z,7.13
2022-10-23T07:25:26.501Z,5.20
2022-10-23T07:27:55.717Z,5.15
2022-10-23T07:30:22.405Z,2.38
2022-10-23T07:32:49.056Z,4.35
2022-10-23T07:35:16.290Z,9.70
2022-10-23T07:37:43.326Z,5.32
2022-10-23T07:40:10.690Z,3.53
2022-10-23T07:42:38.819Z,7.70
2022-10-23T07:45:07.460Z,8.77
2022-10-23T07:47:34.308Z,15.35
2022-10-23T07:50:00.965Z,7.43
2022-10-23T07:52:31.959Z,7.40
2022-10-23T07:55:01.770Z,10.63
2022-10-23T07:57:28.412Z,4.78
2022-10-23T07:59:55.106Z,7.55
2022-10-23T08:02:21.793Z,2.15
2022-10-23T08:04:51.249Z,5.30
2022-10-23T08:07:17.956Z,8.20
2022-10-23T08:09:44.630Z,6.40
2022-10-23T08:12:11.369Z,7.05
2022-10-23T08:14:38.005Z,5.47
2022-10-23T08:17:05.333Z,6.97
2022-10-23T08:19:32.317Z,4.72
2022-10-23T08:21:59.025Z,6.53
2022-10-23T08:24:25.695Z,4.38
2022-10-23T08:26:52.341Z,10.13
2022-10-23T08:29:19.032Z,6.05
2022-10-23T08:31:45.697Z,4.28
2022-10-23T08:34:12.818Z,4.05
2022-10-23T08:36:39.846Z,4.55
2022-10-23T08:39:06.894Z,3.15
2022-10-23T08:41:36.486Z,5.15
2022-10-23T08:44:18.453Z,2.95
2022-10-23T08:46:49.458Z,5.75
2022-10-23T08:53:16.883Z,2.58
2022-10-23T08:55:47.126Z,6.05
2022-10-23T08:58:41.738Z,5.60
2022-10-23T09:01:38.700Z,5.15
2022-10-23T09:04:06.285Z,4.55
2022-10-23T09:06:54.542Z,4.70
2022-10-23T09:09:29.897Z,10.63
2022-10-23T09:12:09.349Z,9.10
2022-10-23T09:14:57.661Z,4.97
2022-10-23T09:17:24.344Z,5.60
2022-10-23T09:20:06.283Z,5.88
2022-10-23T09:22:32.973Z,3.80
2022-10-23T09:24:59.637Z,4.88
2022-10-23T09:27:26.286Z,5.90
2022-10-23T09:29:55.558Z,10.27
2022-10-23T09:32:36.946Z,8.38
2022-10-23T09:35:05.159Z,3.67
2022-10-23T09:37:34.416Z,2.40
2022-10-23T09:40:02.744Z,4.88
2022-10-23T09:42:29.489Z,6.10
2022-10-23T09:44:57.506Z,6.05
2022-10-23T09:47:25.746Z,5.40
2022-10-23T09:49:55.437Z,5.47
2022-10-23T09:52:34.847Z,8.20
2022-10-23T09:55:15.586Z,5.43
2022-10-23T09:57:44.403Z,5.25
2022-10-23T10:00:14.274Z,4.30
2022-10-23T10:02:42.854Z,3.78
2022-10-23T10:05:31.666Z,5.75
2022-10-23T10:08:13.366Z,3.97
2022-10-23T10:10:51.358Z,3.60
2022-10-23T10:13:33.248Z,5.10
2022-10-23T10:16:15.841Z,3.53
2022-10-23T10:19:12.645Z,3.63
2022-10-23T10:21:57.943Z,5.50
2022-10-23T10:24:46.459Z,6.35
2022-10-23T10:27:42.624Z,7.07
2022-10-23T10:30:21.633Z,4.40
2022-10-23T10:33:21.854Z,5.80
2022-10-23T10:35:51.239Z,3.15
2022-10-23T10:38:36.402Z,2.17
2022-10-23T10:41:44.277Z,6.55
2022-10-23T10:44:10.883Z,4.05
2022-10-23T10:46:55.064Z,5.72
2022-10-23T10:49:40.662Z,6.30
2022-10-23T10:52:28.671Z,5.50
2022-10-23T10:55:16.933Z,4.03
2022-10-23T10:57:59.989Z,5.50
2022-10-23T11:00:29.775Z,4.13
2022-10-23T11:03:19.488Z,1.95
2022-10-23T11:05:50.468Z,3.45
2022-10-23T11:08:22.307Z,5.80
2022-10-23T11:10:53.290Z,6.00
2022-10-23T11:13:40.500Z,3.33
2022-10-23T11:16:25.512Z,2.95
2022-10-23T11:19:14.086Z,2.90
2022-10-23T11:22:03.927Z,7.10
2022-10-23T11:25:07.949Z,6.35
2022-10-23T11:27:41.857Z,5.88
2022-10-23T11:30:22.986Z,8.80
2022-10-23T11:33:08.545Z,3.78
2022-10-23T11:36:05.944Z,4.63
2022-10-23T11:38:36.459Z,4.07
2022-10-23T11:41:21.130Z,5.70
2022-10-23T11:44:01.453Z,4.55
2022-10-23T11:46:36.438Z,5.72
2022-10-23T11:49:06.128Z,8.13
2022-10-23T11:51:40.239Z,3.70
2022-10-23T11:54:24.511Z,4.07
2022-10-23T11:56:56.319Z,4.95
2022-10-23T11:59:27.532Z,4.03
2022-10-23T12:01:56.350Z,4.00
2022-10-23T12:04:55.393Z,5.47
2022-10-23T12:07:31.896Z,3.70
2022-10-23T12:10:34.395Z,4.97
2022-10-23T12:13:06.546Z,3.05
2022-10-23T12:15:34.907Z,3.95
2022-10-23T12:18:15.717Z,2.70
2022-10-23T12:20:56.446Z,6.55
2022-10-23T12:23:53.158Z,3.97
2022-10-23T12:26:33.298Z,2.25
2022-10-23T12:29:17.653Z,3.60
2022-10-23T12:31:57.276Z,4.50
2022-10-23T12:34:40.043Z,3.40
2022-10-23T12:37:32.252Z,7.68
2022-10-23T12:39:59.283Z,3.42
2022-10-23T12:42:28.950Z,5.00
2022-10-23T12:45:02.350Z,1.90
2022-10-23T12:47:30.193Z,7.00
2022-10-23T12:49:57.078Z,5.65
2022-10-23T12:52:25.269Z,3.80
2022-10-23T12:54:52.173Z,1.52
2022-10-23T12:57:28.068Z,2.42
2022-10-23T13:00:08.332Z,3.75
2022-10-23T13:05:05.477Z,3.00
2022-10-23T13:10:01.807Z,4.05
2022-10-23T13:12:31.529Z,3.13
2022-10-23T13:15:03.084Z,4.25
2022-10-23T13:17:45.116Z,3.83
2022-10-23T13:20:22.989Z,5.72
2022-10-23T13:22:57.748Z,4.65
2022-10-23T13:25:32.819Z,3.58
2022-10-23T13:28:08.554Z,11.80
2022-10-23T13:30:42.744Z,5.35
2022-10-23T13:33:22.821Z,3.45
2022-10-23T13:36:19.402Z,2.38
2022-10-23T13:39:08.962Z,2.63
2022-10-23T13:41:45.785Z,6.13
2022-10-23T13:44:18.576Z,6.85
2022-10-23T13:46:46.133Z,2.67
2022-10-23T13:49:12.904Z,4.55
2022-10-23T13:51:52.134Z,5.25
2022-10-23T13:56:59.274Z,7.50
2022-10-23T13:59:26.017Z,7.13
2022-10-23T14:01:53.062Z,5.93
2022-10-23T14:04:20.711Z,6.88
2022-10-23T14:06:47.789Z,4.72
2022-10-23T14:09:17.181Z,9.55
2022-10-23T14:11:44.593Z,9.23
2022-10-23T14:14:11.721Z,7.60
2022-10-23T14:16:38.369Z,3.72
2022-10-23T14:19:05.095Z,3.63
2022-10-23T14:21:31.775Z,4.43
2022-10-23T14:23:58.418Z,3.38
2022-10-23T14:26:30.463Z,4.57
2022-10-23T14:29:00.687Z,6.93
2022-10-23T14:31:31.097Z,4.32
2022-10-23T14:34:00.685Z,3.30
2022-10-23T14:36:38.327Z,3.65
2022-10-23T14:39:15.450Z,6.88
2022-10-23T14:41:42.083Z,4.35
2022-10-23T14:44:08.746Z,8.10
2022-10-23T14:46:36.246Z,7.80
2022-10-23T14:49:02.888Z,5.78
2022-10-23T14:51:30.247Z,5.82
2022-10-23T14:54:04.863Z,8.05
2022-10-23T14:56:34.326Z,5.05
2022-10-23T14:59:04.376Z,4.60
2022-10-23T15:01:32.195Z,3.20
2022-10-23T15:03:58.965Z,6.57
2022-10-23T15:06:25.738Z,3.85
2022-10-23T15:08:55.157Z,5.00
2022-10-23T15:11:22.558Z,5.90
2022-10-23T15:13:49.235Z,10.32
2022-10-23T15:16:16.534Z,10.40
2022-10-23T15:18:43.184Z,9.68
2022-10-23T15:21:10.255Z,10.07
2022-10-23T15:23:38.905Z,17.58
2022-10-23T15:26:08.469Z,10.55
2022-10-23T15:28:35.279Z,14.15
2022-10-23T15:31:01.988Z,11.63
2022-10-23T15:33:29.070Z,17.50
2022-10-23T15:35:56.137Z,13.38
2022-10-23T15:38:23.477Z,24.15
2022-10-23T15:40:50.168Z,11.75
2022-10-23T15:43:17.492Z,15.82
2022-10-23T15:45:45.253Z,21.40
2022-10-23T15:48:12.746Z,14.63
2022-10-23T15:50:39.406Z,16.38
2022-10-23T15:53:06.040Z,16.25
2022-10-23T15:55:32.706Z,20.05
2022-10-23T15:58:04.033Z,14.85
2022-10-23T16:00:30.778Z,16.45
2022-10-23T16:02:57.843Z,21.05
2022-10-23T16:05:24.537Z,17.65
2022-10-23T16:07:51.215Z,22.08
2022-10-23T16:10:18.002Z,16.30
2022-10-23T16:12:44.898Z,16.52
2022-10-23T16:15:11.686Z,17.10
2022-10-23T16:17:38.415Z,19.67
2022-10-23T16:20:05.469Z,23.73
2022-10-23T16:22:32.112Z,18.80
2022-10-23T16:24:58.782Z,19.95
2022-10-23T16:27:25.472Z,24.65
2022-10-23T16:29:52.222Z,16.10
2022-10-23T16:32:18.883Z,14.13
2022-10-23T16:34:46.029Z,16.67
2022-10-23T16:37:12.658Z,17.83
2022-10-23T16:39:39.356Z,21.40
2022-10-23T16:42:06.354Z,15.65
2022-10-23T16:44:33.038Z,17.38
2022-10-23T16:46:59.685Z,8.90
2022-10-23T16:49:26.416Z,14.85
2022-10-23T16:51:53.130Z,16.77
2022-10-23T16:54:19.850Z,15.77
2022-10-23T16:56:47.283Z,18.35
2022-10-23T16:59:14.340Z,20.85
2022-10-23T17:01:41.038Z,18.38
2022-10-23T17:04:10.983Z,19.45
2022-10-23T17:06:37.687Z,19.67
2022-10-23T17:09:05.201Z,14.88
2022-10-23T17:11:34.957Z,17.92
2022-10-23T17:14:07.300Z,19.63
2022-10-23T17:16:38.787Z,18.10
2022-10-23T17:21:55.870Z,18.17
2022-10-23T17:24:23.049Z,11.95
2022-10-23T17:26:49.711Z,15.13
2022-10-23T17:29:16.914Z,10.75
2022-10-23T17:31:46.837Z,12.77
2022-10-23T17:34:17.783Z,11.50
2022-10-23T17:36:48.804Z,10.75
2022-10-23T17:39:18.452Z,11.23
2022-10-23T17:41:45.400Z,13.18
2022-10-23T17:44:12.082Z,13.30
2022-10-23T17:46:38.913Z,11.88
2022-10-23T17:49:06.175Z,22.48
2022-10-23T17:51:34.985Z,8.30
2022-10-23T17:54:05.465Z,11.02
2022-10-23T17:56:33.580Z,7.13
2022-10-23T17:59:03.710Z,11.07
2022-10-23T18:01:31.563Z,9.93
2022-10-23T18:04:02.597Z,9.02
2022-10-23T18:06:32.573Z,5.57
2022-10-23T18:09:01.354Z,4.30
2022-10-23T18:11:33.843Z,7.88
2022-10-23T18:14:01.399Z,8.15
2022-10-23T18:16:28.199Z,8.40
2022-10-23T18:18:55.091Z,6.65
2022-10-23T18:21:23.982Z,8.35
2022-10-23T18:23:51.131Z,9.13
2022-10-23T18:26:23.817Z,8.02
2022-10-23T18:28:52.670Z,8.60
2022-10-23T18:31:20.816Z,8.50
2022-10-23T18:33:47.698Z,7.47
2022-10-23T18:36:14.371Z,4.40
2022-10-23T18:38:41.182Z,8.43
2022-10-23T18:41:07.957Z,6.63
2022-10-23T18:43:49.150Z,7.88
2022-10-23T18:46:16.153Z,4.10
2022-10-23T18:48:43.519Z,6.60
2022-10-23T18:51:15.688Z,6.82
2022-10-23T18:53:43.164Z,3.85
2022-10-23T18:56:09.813Z,6.13
2022-10-23T18:58:36.445Z,5.97
2022-10-23T19:01:03.319Z,7.00
2022-10-23T19:03:30.024Z,6.75
2022-10-23T19:05:56.739Z,6.25
2022-10-23T19:08:23.386Z,2.83
2022-10-23T19:10:51.791Z,7.53
